Time;durP1;ratioP1;P1;durP2;ratioP2;P2;SDS_P1;SDS_P2;PMS_P1;PMS_P2;Temp;Humidity;BMP_temperature;BMP_pressure;BME280_temperature;BME280_humidity;BME280_pressure;Samples;Min_cycle;Max_cycle;Signal;HPM_P1;HPM_P2
2023/05/07 00:00:00;;;;;;;18.25;13.30;;;;;;;;;;5087358;28;20110;-77
2023/05/07 00:02:26;;;;;;;20.88;13.77;;;;;;;;;;5092966;28;20460;-77
2023/05/07 00:04:52;;;;;;;20.88;12.93;;;;;;;;;;5092732;28;20491;-77
2023/05/07 00:07:19;;;;;;;20.35;14.63;;;;;;;;;;5093021;28;20036;-77
2023/05/07 00:09:45;;;;;;;22.27;14.43;;;;;;;;;;5093022;28;20103;-77
2023/05/07 00:12:11;;;;;;;23.63;14.55;;;;;;;;;;5093146;28;20535;-77
2023/05/07 00:14:36;;;;;;;21.00;14.23;;;;;;;;;;5093238;28;20486;-77
2023/05/07 00:17:02;;;;;;;22.95;15.43;;;;;;;;;;5092936;28;20039;-77
2023/05/07 00:19:28;;;;;;;22.30;14.02;;;;;;;;;;5093316;28;20060;-77
2023/05/07 00:21:55;;;;;;;22.52;14.80;;;;;;;;;;5093325;28;20028;-77
2023/05/07 00:24:21;;;;;;;21.38;14.35;;;;;;;;;;5090434;28;20022;-77
2023/05/07 00:26:47;;;;;;;18.02;12.23;;;;;;;;;;5073132;28;20107;-77
2023/05/07 00:29:13;;;;;;;22.30;15.18;;;;;;;;;;5072805;28;20116;-77
2023/05/07 00:31:39;;;;;;;23.20;15.32;;;;;;;;;;5073133;28;20025;-77
2023/05/07 00:34:05;;;;;;;20.83;14.65;;;;;;;;;;5074422;28;20025;-77
2023/05/07 00:36:32;;;;;;;20.48;13.38;;;;;;;;;;5074689;28;20103;-77
2023/05/07 00:39:00;;;;;;;23.38;13.93;;;;;;;;;;5074589;28;20028;-77
2023/05/07 00:41:26;;;;;;;18.65;12.50;;;;;;;;;;5080523;28;20362;-77
2023/05/07 00:43:52;;;;;;;20.58;13.90;;;;;;;;;;5094613;28;20439;-77
2023/05/07 00:46:19;;;;;;;22.30;14.82;;;;;;;;;;5094476;28;20078;-76
2023/05/07 00:48:45;;;;;;;23.45;13.52;;;;;;;;;;5094206;28;20081;-77
2023/05/07 00:51:12;;;;;;;20.30;13.73;;;;;;;;;;5088289;28;20023;-77
2023/05/07 00:53:38;;;;;;;18.52;13.20;;;;;;;;;;5076456;28;20021;-77
2023/05/07 00:56:06;;;;;;;19.85;13.73;;;;;;;;;;5094201;28;20035;-77
2023/05/07 00:58:32;;;;;;;21.45;12.52;;;;;;;;;;5094479;28;20112;-77
2023/05/07 01:00:58;;;;;;;23.67;15.25;;;;;;;;;;5093825;28;20056;-77
2023/05/07 01:03:25;;;;;;;23.73;14.85;;;;;;;;;;5094083;28;20055;-76
2023/05/07 01:05:53;;;;;;;22.30;15.07;;;;;;;;;;5094475;28;20024;-76
2023/05/07 01:08:19;;;;;;;22.95;14.85;;;;;;;;;;5078036;28;20025;-76
2023/05/07 01:10:45;;;;;;;22.17;14.18;;;;;;;;;;5074034;28;20107;-76
2023/05/07 01:13:12;;;;;;;21.48;15.13;;;;;;;;;;5073653;28;20027;-76
2023/05/07 01:15:40;;;;;;;22.45;15.57;;;;;;;;;;5072244;28;20467;-77
2023/05/07 01:18:07;;;;;;;24.70;14.80;;;;;;;;;;5073757;28;20024;-77
2023/05/07 01:20:33;;;;;;;22.83;14.75;;;;;;;;;;5073427;28;20016;-76
2023/05/07 01:23:01;;;;;;;20.75;14.25;;;;;;;;;;5073303;28;20673;-76
2023/05/07 01:25:27;;;;;;;22.40;13.80;;;;;;;;;;5090110;28;20024;-76
2023/05/07 01:27:53;;;;;;;23.33;13.77;;;;;;;;;;5093572;28;20043;-77
2023/05/07 01:30:21;;;;;;;23.90;14.70;;;;;;;;;;5093698;28;20020;-76
2023/05/07 01:32:51;;;;;;;20.95;13.60;;;;;;;;;;5093626;28;20028;-77
2023/05/07 01:35:20;;;;;;;21.30;12.60;;;;;;;;;;5093421;28;20043;-77
2023/05/07 01:37:47;;;;;;;23.05;13.88;;;;;;;;;;5093740;28;20085;-77
2023/05/07 01:40:13;;;;;;;22.95;14.10;;;;;;;;;;5093525;28;20024;-76
2023/05/07 01:42:39;;;;;;;19.98;13.25;;;;;;;;;;5093205;28;20024;-76
2023/05/07 01:45:06;;;;;;;24.42;13.32;;;;;;;;;;5093370;28;20027;-76
2023/05/07 01:47:33;;;;;;;24.65;13.63;;;;;;;;;;5094760;28;20024;-76
2023/05/07 01:49:59;;;;;;;24.23;13.80;;;;;;;;;;5091563;28;20041;-76
2023/05/07 01:52:25;;;;;;;19.75;13.13;;;;;;;;;;5088738;28;20077;-76
2023/05/07 01:54:51;;;;;;;20.00;14.18;;;;;;;;;;5084352;28;20120;-77
2023/05/07 01:57:17;;;;;;;20.67;13.05;;;;;;;;;;5054921;28;20119;-77
2023/05/07 01:59:43;;;;;;;19.58;12.55;;;;;;;;;;5073011;28;20028;-77
2023/05/07 02:02:09;;;;;;;17.75;12.20;;;;;;;;;;5071886;28;20052;-77
2023/05/07 02:04:35;;;;;;;17.63;11.23;;;;;;;;;;5073106;28;20024;-77
2023/05/07 02:07:01;;;;;;;19.40;12.13;;;;;;;;;;5076118;28;20153;-77
2023/05/07 02:09:27;;;;;;;21.13;13.02;;;;;;;;;;5093170;28;20123;-77
2023/05/07 02:11:53;;;;;;;19.48;11.85;;;;;;;;;;5092871;28;20153;-77
2023/05/07 02:14:20;;;;;;;17.42;12.60;;;;;;;;;;5074731;28;20035;-77
2023/05/07 02:16:46;;;;;;;18.77;12.38;;;;;;;;;;5093353;28;20016;-77
2023/05/07 02:19:11;;;;;;;19.20;12.23;;;;;;;;;;5092821;28;20731;-77
2023/05/07 02:21:37;;;;;;;21.08;13.13;;;;;;;;;;5092833;28;20032;-76
2023/05/07 02:24:04;;;;;;;19.45;12.60;;;;;;;;;;5074530;28;20035;-77
2023/05/07 02:26:29;;;;;;;19.95;12.82;;;;;;;;;;5092968;28;20099;-77
2023/05/07 02:28:55;;;;;;;20.20;13.25;;;;;;;;;;5092544;28;20119;-77
2023/05/07 02:31:22;;;;;;;21.35;12.15;;;;;;;;;;5092781;28;20081;-76
2023/05/07 02:33:48;;;;;;;19.98;12.82;;;;;;;;;;5074699;28;20501;-77
2023/05/07 02:36:14;;;;;;;19.95;12.07;;;;;;;;;;5092818;28;20024;-77
2023/05/07 02:38:40;;;;;;;22.17;13.27;;;;;;;;;;5092725;28;20107;-77
2023/05/07 02:41:06;;;;;;;22.95;13.68;;;;;;;;;;5092815;28;20095;-77
2023/05/07 02:43:32;;;;;;;23.63;14.75;;;;;;;;;;5092743;28;20362;-77
2023/05/07 02:46:07;;;;;;;21.00;13.93;;;;;;;;;;5092536;28;20042;-76
2023/05/07 02:48:34;;;;;;;20.33;13.68;;;;;;;;;;5092712;28;20024;-76
2023/05/07 02:51:00;;;;;;;20.63;13.80;;;;;;;;;;5087303;28;20483;-76
2023/05/07 02:53:27;;;;;;;18.77;13.68;;;;;;;;;;5081232;28;20033;-77
2023/05/07 02:55:53;;;;;;;20.42;14.07;;;;;;;;;;5072457;28;20039;-77
2023/05/07 02:58:20;;;;;;;21.45;14.32;;;;;;;;;;5072494;28;20032;-77
2023/05/07 03:00:46;;;;;;;21.60;14.35;;;;;;;;;;5089419;28;20378;-77
2023/05/07 03:03:12;;;;;;;23.42;14.43;;;;;;;;;;5092539;28;20029;-77
2023/05/07 03:05:38;;;;;;;27.63;15.98;;;;;;;;;;5092717;28;20101;-77
2023/05/07 03:08:04;;;;;;;29.15;16.30;;;;;;;;;;5084323;28;20086;-77
2023/05/07 03:10:30;;;;;;;27.10;16.58;;;;;;;;;;5072582;28;20025;-76
2023/05/07 03:12:58;;;;;;;25.10;16.15;;;;;;;;;;5074644;28;20027;-76
2023/05/07 03:15:26;;;;;;;23.83;15.30;;;;;;;;;;5075928;28;20024;-77
2023/05/07 03:17:52;;;;;;;28.83;17.77;;;;;;;;;;5075921;28;20060;-77
2023/05/07 03:20:17;;;;;;;25.38;16.10;;;;;;;;;;5075740;28;20114;-77
2023/05/07 03:22:43;;;;;;;24.15;15.88;;;;;;;;;;5075726;28;20031;-77
2023/05/07 03:25:10;;;;;;;23.48;15.68;;;;;;;;;;5090238;28;20530;-77
2023/05/07 03:27:35;;;;;;;24.05;16.90;;;;;;;;;;5095898;28;20017;-77
2023/05/07 03:30:01;;;;;;;27.55;17.10;;;;;;;;;;5095866;28;20046;-77
2023/05/07 03:32:27;;;;;;;27.70;18.02;;;;;;;;;;5096020;28;20035;-77
2023/05/07 03:34:53;;;;;;;28.17;17.92;;;;;;;;;;5095832;28;20035;-77
2023/05/07 03:37:19;;;;;;;28.70;17.75;;;;;;;;;;5095778;28;20107;-77
2023/05/07 03:39:45;;;;;;;27.80;18.27;;;;;;;;;;5096031;28;20034;-77
2023/05/07 03:42:11;;;;;;;29.88;17.75;;;;;;;;;;5095724;28;20023;-77
2023/05/07 03:44:37;;;;;;;30.38;17.75;;;;;;;;;;5095438;28;20032;-77
2023/05/07 03:47:04;;;;;;;25.58;17.23;;;;;;;;;;5095660;28;20028;-77
2023/05/07 03:49:30;;;;;;;31.67;18.25;;;;;;;;;;5095511;28;20056;-77
2023/05/07 03:51:56;;;;;;;27.83;18.77;;;;;;;;;;5095432;28;20082;-77
2023/05/07 03:54:22;;;;;;;28.30;19.50;;;;;;;;;;5089577;28;20032;-77
2023/05/07 03:56:48;;;;;;;30.88;20.52;;;;;;;;;;5085957;28;20020;-77
2023/05/07 03:59:14;;;;;;;26.65;17.98;;;;;;;;;;5082040;28;20052;-77
2023/05/07 04:01:40;;;;;;;30.77;19.88;;;;;;;;;;5074087;28;20087;-77
2023/05/07 04:04:06;;;;;;;30.75;19.25;;;;;;;;;;5093600;28;20474;-77
2023/05/07 04:06:32;;;;;;;27.77;18.90;;;;;;;;;;5095091;28;20161;-77
2023/05/07 04:08:58;;;;;;;29.13;18.83;;;;;;;;;;5094994;28;20043;-77
2023/05/07 04:11:24;;;;;;;29.55;17.65;;;;;;;;;;5095278;28;20047;-77
2023/05/07 04:13:50;;;;;;;30.20;20.50;;;;;;;;;;5095415;28;20051;-76
2023/05/07 04:16:16;;;;;;;29.00;18.58;;;;;;;;;;5095117;28;20101;-77
2023/05/07 04:18:42;;;;;;;29.25;18.92;;;;;;;;;;5076851;28;20035;-76
2023/05/07 04:21:18;;;;;;;31.45;19.17;;;;;;;;;;5094932;28;20040;-76
2023/05/07 04:23:45;;;;;;;30.55;18.35;;;;;;;;;;5094523;28;20462;-76
2023/05/07 04:26:11;;;;;;;30.58;18.70;;;;;;;;;;5095077;28;20485;-76
2023/05/07 04:28:37;;;;;;;32.83;18.98;;;;;;;;;;5094863;28;20024;-77
2023/05/07 04:31:03;;;;;;;36.25;19.90;;;;;;;;;;5095208;28;20063;-77
2023/05/07 04:33:29;;;;;;;29.77;19.58;;;;;;;;;;5095079;28;20020;-77
2023/05/07 04:35:55;;;;;;;28.70;18.67;;;;;;;;;;5094718;28;20512;-77
2023/05/07 04:38:23;;;;;;;30.60;18.88;;;;;;;;;;5094806;28;20027;-77
2023/05/07 04:40:49;;;;;;;31.35;18.98;;;;;;;;;;5095119;28;20035;-76
2023/05/07 04:43:15;;;;;;;29.40;19.20;;;;;;;;;;5094417;28;20502;-76
2023/05/07 04:45:41;;;;;;;33.83;21.50;;;;;;;;;;5094654;28;20024;-76
2023/05/07 04:48:09;;;;;;;30.92;19.50;;;;;;;;;;5094350;28;20036;-77
2023/05/07 04:50:35;;;;;;;32.03;19.38;;;;;;;;;;5094426;28;20066;-76
2023/05/07 04:53:02;;;;;;;30.10;18.92;;;;;;;;;;5079176;28;20024;-77
2023/05/07 04:55:28;;;;;;;33.67;20.33;;;;;;;;;;5091459;28;20024;-77
2023/05/07 04:58:01;;;;;;;33.20;20.45;;;;;;;;;;5074122;28;20023;-76
2023/05/07 05:00:27;;;;;;;29.63;18.95;;;;;;;;;;5083663;28;20474;-77
2023/05/07 05:02:53;;;;;;;35.28;20.38;;;;;;;;;;5093932;28;20119;-77
2023/05/07 05:05:19;;;;;;;31.00;20.08;;;;;;;;;;5093944;28;20367;-77
2023/05/07 05:07:45;;;;;;;35.63;21.73;;;;;;;;;;5094000;28;20454;-76
2023/05/07 05:10:11;;;;;;;33.55;19.13;;;;;;;;;;5094010;28;20035;-76
2023/05/07 05:12:37;;;;;;;31.92;19.98;;;;;;;;;;5075763;28;20466;-77
2023/05/07 05:15:03;;;;;;;34.58;20.25;;;;;;;;;;5094232;28;20024;-76
2023/05/07 05:17:29;;;;;;;36.53;21.40;;;;;;;;;;5094216;28;20035;-76
2023/05/07 05:19:58;;;;;;;34.05;20.23;;;;;;;;;;5093633;28;20036;-76
2023/05/07 05:22:25;;;;;;;38.17;20.80;;;;;;;;;;5093834;28;20028;-76
2023/05/07 05:24:51;;;;;;;35.47;21.33;;;;;;;;;;5093997;28;20016;-76
2023/05/07 05:27:17;;;;;;;33.47;20.92;;;;;;;;;;5093503;28;20035;-76
2023/05/07 05:29:43;;;;;;;34.63;22.08;;;;;;;;;;5075081;28;20059;-77
2023/05/07 05:32:15;;;;;;;36.17;20.05;;;;;;;;;;5093902;28;20024;-77
2023/05/07 05:34:42;;;;;;;37.65;21.80;;;;;;;;;;5075172;28;20060;-77
2023/05/07 05:37:07;;;;;;;35.30;21.05;;;;;;;;;;5092533;28;20478;-77
2023/05/07 05:39:33;;;;;;;39.53;22.45;;;;;;;;;;5084809;28;20028;-76
2023/05/07 05:42:00;;;;;;;39.72;23.95;;;;;;;;;;5092977;28;20415;-76
2023/05/07 05:44:26;;;;;;;39.33;23.13;;;;;;;;;;5093063;28;20031;-76
2023/05/07 05:46:54;;;;;;;36.75;21.50;;;;;;;;;;5093336;28;20089;-76
2023/05/07 05:49:20;;;;;;;41.53;23.70;;;;;;;;;;5092643;28;20455;-77
2023/05/07 05:51:46;;;;;;;41.47;24.17;;;;;;;;;;5081871;28;20040;-76
2023/05/07 05:54:12;;;;;;;37.25;22.42;;;;;;;;;;5088340;28;20029;-77
2023/05/07 05:56:38;;;;;;;38.33;24.85;;;;;;;;;;5073167;28;20383;-77
2023/05/07 05:59:04;;;;;;;40.25;22.92;;;;;;;;;;5082656;28;20036;-76
2023/05/07 06:01:30;;;;;;;36.60;22.10;;;;;;;;;;5082538;28;20060;-77
2023/05/07 06:03:57;;;;;;;41.03;24.15;;;;;;;;;;5090470;28;20051;-76
2023/05/07 06:06:23;;;;;;;37.78;21.88;;;;;;;;;;5090362;28;20028;-76
2023/05/07 06:08:49;;;;;;;40.70;23.55;;;;;;;;;;5088325;28;20032;-76
2023/05/07 06:11:15;;;;;;;34.08;20.92;;;;;;;;;;5072429;28;20023;-76
2023/05/07 06:13:41;;;;;;;38.85;22.33;;;;;;;;;;5090827;28;20020;-77
2023/05/07 06:16:07;;;;;;;40.40;24.63;;;;;;;;;;5090684;28;20024;-77
2023/05/07 06:18:35;;;;;;;37.38;20.92;;;;;;;;;;5090519;28;20020;-76
2023/05/07 06:21:01;;;;;;;36.58;22.70;;;;;;;;;;5090554;28;20032;-76
2023/05/07 06:23:27;;;;;;;43.20;26.35;;;;;;;;;;5090708;28;20126;-76
2023/05/07 06:25:53;;;;;;;37.25;22.60;;;;;;;;;;5087462;28;20094;-77
2023/05/07 06:28:25;;;;;;;40.53;24.63;;;;;;;;;;5093128;28;20365;-76
2023/05/07 06:30:51;;;;;;;36.30;21.52;;;;;;;;;;5097951;28;20110;-77
2023/05/07 06:33:19;;;;;;;37.75;22.02;;;;;;;;;;5095338;28;20214;-76
2023/05/07 06:35:45;;;;;;;38.83;23.10;;;;;;;;;;5083427;28;20547;-77
2023/05/07 06:38:12;;;;;;;36.20;21.48;;;;;;;;;;5090625;28;20051;-76
2023/05/07 06:40:38;;;;;;;32.20;22.20;;;;;;;;;;5090635;28;20086;-77
2023/05/07 06:43:04;;;;;;;36.17;22.15;;;;;;;;;;5081145;28;20105;-77
2023/05/07 06:45:30;;;;;;;33.60;21.27;;;;;;;;;;5073630;28;20039;-77
2023/05/07 06:47:56;;;;;;;32.45;21.85;;;;;;;;;;5083032;28;20034;-76
2023/05/07 06:50:22;;;;;;;37.97;24.50;;;;;;;;;;5090326;28;20020;-76
2023/05/07 06:52:48;;;;;;;36.63;22.55;;;;;;;;;;5082808;28;20043;-76
2023/05/07 06:55:14;;;;;;;38.63;22.77;;;;;;;;;;5085953;28;20023;-76
2023/05/07 06:57:40;;;;;;;35.40;21.48;;;;;;;;;;5094107;28;20447;-77
2023/05/07 07:00:08;;;;;;;35.83;24.23;;;;;;;;;;5090368;28;20032;-77
2023/05/07 07:02:34;;;;;;;34.97;21.92;;;;;;;;;;5093762;28;20041;-77
2023/05/07 07:05:00;;;;;;;32.05;21.85;;;;;;;;;;5093453;28;20032;-77
2023/05/07 07:07:26;;;;;;;34.40;21.17;;;;;;;;;;5094050;28;20216;-77
2023/05/07 07:09:52;;;;;;;32.10;21.50;;;;;;;;;;5093683;28;20036;-77
2023/05/07 07:12:18;;;;;;;32.25;21.33;;;;;;;;;;5094021;28;20028;-77
2023/05/07 07:14:44;;;;;;;32.33;20.73;;;;;;;;;;5095487;28;20081;-77
2023/05/07 07:17:10;;;;;;;31.33;20.90;;;;;;;;;;5097149;28;20099;-77
2023/05/07 07:19:37;;;;;;;33.95;24.35;;;;;;;;;;5094059;28;20077;-77
2023/05/07 07:22:03;;;;;;;31.80;20.88;;;;;;;;;;5100380;28;20073;-77
2023/05/07 07:24:29;;;;;;;32.15;21.65;;;;;;;;;;5100670;28;20024;-77
2023/05/07 07:26:55;;;;;;;26.63;19.52;;;;;;;;;;5103594;28;20039;-77
2023/05/07 07:29:21;;;;;;;29.60;18.40;;;;;;;;;;5099253;28;20038;-78
2023/05/07 07:31:49;;;;;;;27.23;17.92;;;;;;;;;;5097859;28;20102;-78
2023/05/07 07:34:15;;;;;;;28.20;19.23;;;;;;;;;;5099826;28;20051;-78
2023/05/07 07:36:41;;;;;;;27.38;20.08;;;;;;;;;;5094267;28;20020;-78
2023/05/07 07:39:07;;;;;;;29.92;20.10;;;;;;;;;;5090462;28;20107;-78
2023/05/07 07:41:33;;;;;;;25.90;18.52;;;;;;;;;;5087622;28;20348;-78
2023/05/07 07:43:59;;;;;;;28.27;19.73;;;;;;;;;;5094579;28;20024;-78
2023/05/07 07:46:26;;;;;;;29.38;20.15;;;;;;;;;;5097584;28;20024;-78
2023/05/07 07:48:52;;;;;;;22.35;16.38;;;;;;;;;;5089428;28;20043;-78
2023/05/07 07:51:18;;;;;;;28.00;19.48;;;;;;;;;;5095738;28;20028;-78
2023/05/07 07:53:44;;;;;;;26.65;19.05;;;;;;;;;;5093574;28;20028;-76
2023/05/07 07:56:10;;;;;;;28.45;19.67;;;;;;;;;;5074935;28;20036;-77
2023/05/07 07:58:37;;;;;;;25.70;19.58;;;;;;;;;;5088801;28;20085;-78
2023/05/07 08:01:03;;;;;;;27.75;19.95;;;;;;;;;;5092854;28;20055;-77
2023/05/07 08:03:32;;;;;;;28.15;19.02;;;;;;;;;;5092795;28;20059;-76
2023/05/07 08:05:58;;;;;;;26.88;19.25;;;;;;;;;;5093144;28;20020;-76
2023/05/07 08:08:24;;;;;;;26.52;19.00;;;;;;;;;;5092521;28;20032;-77
2023/05/07 08:10:50;;;;;;;26.02;18.70;;;;;;;;;;5092726;28;20107;-76
2023/05/07 08:13:16;;;;;;;22.60;17.17;;;;;;;;;;5089003;28;20020;-77
2023/05/07 08:15:42;;;;;;;22.25;17.77;;;;;;;;;;5091982;28;20043;-76
2023/05/07 08:18:08;;;;;;;23.17;18.10;;;;;;;;;;5094842;28;20445;-78
2023/05/07 08:20:39;;;;;;;25.42;19.38;;;;;;;;;;5086550;28;20097;-78
2023/05/07 08:23:05;;;;;;;24.42;17.52;;;;;;;;;;5079157;28;20110;-78
2023/05/07 08:25:33;;;;;;;19.80;15.57;;;;;;;;;;5096274;28;20083;-78
2023/05/07 08:27:59;;;;;;;24.52;18.42;;;;;;;;;;5100076;28;20032;-77
2023/05/07 08:30:25;;;;;;;24.33;18.73;;;;;;;;;;5092629;28;20016;-77
2023/05/07 08:32:51;;;;;;;23.05;17.10;;;;;;;;;;5092618;28;20056;-77
2023/05/07 08:35:17;;;;;;;22.02;17.92;;;;;;;;;;5092535;28;20035;-77
2023/05/07 08:37:43;;;;;;;24.75;16.65;;;;;;;;;;5092633;28;20035;-77
2023/05/07 08:40:10;;;;;;;22.00;17.52;;;;;;;;;;5088247;28;20024;-77
2023/05/07 08:42:37;;;;;;;21.67;17.10;;;;;;;;;;5092420;28;20024;-77
2023/05/07 08:45:08;;;;;;;20.85;17.25;;;;;;;;;;5092437;28;20020;-77
2023/05/07 08:47:54;;;;;;;20.30;16.20;;;;;;;;;;5087812;28;20028;-77
2023/05/07 08:50:21;;;;;;;23.23;18.42;;;;;;;;;;5085710;28;20114;-78
2023/05/07 08:52:48;;;;;;;23.70;17.42;;;;;;;;;;5089098;28;20115;-77
2023/05/07 08:55:14;;;;;;;23.52;17.63;;;;;;;;;;5092199;28;20141;-77
2023/05/07 08:57:40;;;;;;;22.38;15.95;;;;;;;;;;5092522;28;20024;-78
2023/05/07 09:00:07;;;;;;;22.70;17.40;;;;;;;;;;5092151;28;20039;-77
2023/05/07 09:02:33;;;;;;;21.80;17.63;;;;;;;;;;5091809;28;20040;-77
2023/05/07 09:04:59;;;;;;;22.83;18.67;;;;;;;;;;5092342;28;20036;-78
2023/05/07 09:07:26;;;;;;;25.02;17.95;;;;;;;;;;5092062;28;20493;-77
2023/05/07 09:09:52;;;;;;;20.92;17.40;;;;;;;;;;5094366;28;20490;-78
2023/05/07 09:12:18;;;;;;;22.40;18.08;;;;;;;;;;5105021;28;20367;-77
2023/05/07 09:14:45;;;;;;;23.70;17.67;;;;;;;;;;5102189;28;20390;-78
2023/05/07 09:17:11;;;;;;;24.05;18.55;;;;;;;;;;5092410;28;21260;-77
2023/05/07 09:19:37;;;;;;;22.08;17.38;;;;;;;;;;5092952;28;20031;-78
2023/05/07 09:22:08;;;;;;;22.33;16.15;;;;;;;;;;5091654;28;20036;-77
2023/05/07 09:24:36;;;;;;;21.13;16.73;;;;;;;;;;5092800;28;20016;-77
2023/05/07 09:27:02;;;;;;;23.58;17.73;;;;;;;;;;5091829;28;20059;-77
2023/05/07 09:29:29;;;;;;;20.45;16.65;;;;;;;;;;5091704;28;20045;-77
2023/05/07 09:31:55;;;;;;;23.42;17.00;;;;;;;;;;5073871;28;20020;-77
2023/05/07 09:34:22;;;;;;;21.30;18.10;;;;;;;;;;5091538;28;20020;-77
2023/05/07 09:36:48;;;;;;;23.05;18.25;;;;;;;;;;5091668;28;20106;-77
2023/05/07 09:39:14;;;;;;;24.15;17.83;;;;;;;;;;5091717;28;20360;-77
2023/05/07 09:41:47;;;;;;;23.15;18.15;;;;;;;;;;5091195;28;20024;-76
2023/05/07 09:44:14;;;;;;;22.63;17.17;;;;;;;;;;5091134;28;20509;-76
2023/05/07 09:46:42;;;;;;;20.80;17.70;;;;;;;;;;5088252;28;20028;-76
2023/05/07 09:49:13;;;;;;;19.48;16.98;;;;;;;;;;5088592;28;20059;-77
2023/05/07 09:51:46;;;;;;;22.55;18.55;;;;;;;;;;5091994;28;20043;-77
2023/05/07 09:54:12;;;;;;;20.45;16.88;;;;;;;;;;5072672;28;20236;-77
2023/05/07 09:56:38;;;;;;;22.35;19.25;;;;;;;;;;5095963;28;20062;-77
2023/05/07 09:59:06;;;;;;;24.95;18.95;;;;;;;;;;5102799;28;20023;-78
2023/05/07 10:01:32;;;;;;;26.25;20.15;;;;;;;;;;5098794;28;20032;-78
2023/05/07 10:03:58;;;;;;;22.88;17.65;;;;;;;;;;5095592;28;20030;-78
2023/05/07 10:06:25;;;;;;;22.33;17.48;;;;;;;;;;5093514;28;20024;-77
2023/05/07 10:08:52;;;;;;;25.95;19.02;;;;;;;;;;5103999;28;20118;-78
2023/05/07 10:11:18;;;;;;;21.40;17.67;;;;;;;;;;5093703;28;20077;-78
2023/05/07 10:13:44;;;;;;;24.05;18.40;;;;;;;;;;5092758;28;20028;-78
2023/05/07 10:16:10;;;;;;;25.02;18.45;;;;;;;;;;5097025;28;20026;-78
2023/05/07 10:18:37;;;;;;;23.15;18.92;;;;;;;;;;5091309;28;20024;-78
2023/05/07 10:21:16;;;;;;;26.73;19.75;;;;;;;;;;5090981;28;20024;-78
2023/05/07 10:23:45;;;;;;;23.80;19.30;;;;;;;;;;5098583;28;20040;-79
2023/05/07 10:26:12;;;;;;;24.20;19.88;;;;;;;;;;5100903;28;20306;-79
2023/05/07 10:28:40;;;;;;;23.35;18.42;;;;;;;;;;5101107;28;20032;-79
2023/05/07 10:31:21;;;;;;;24.58;18.63;;;;;;;;;;5101281;28;20036;-79
2023/05/07 10:33:50;;;;;;;23.52;17.77;;;;;;;;;;5103178;28;20493;-79
2023/05/07 10:36:16;;;;;;;24.88;19.83;;;;;;;;;;5095143;28;20389;-79
2023/05/07 10:38:42;;;;;;;23.35;18.48;;;;;;;;;;5094640;28;20106;-79
2023/05/07 10:41:08;;;;;;;22.88;18.73;;;;;;;;;;5093769;28;20421;-79
2023/05/07 10:43:41;;;;;;;23.85;19.80;;;;;;;;;;5093605;28;20450;-79
2023/05/07 10:46:17;;;;;;;24.85;18.17;;;;;;;;;;5093922;28;20024;-79
2023/05/07 10:49:07;;;;;;;25.10;19.63;;;;;;;;;;5093295;28;20024;-78
2023/05/07 10:51:34;;;;;;;27.15;19.58;;;;;;;;;;5093493;28;20031;-78
2023/05/07 10:54:12;;;;;;;23.25;16.95;;;;;;;;;;5093091;28;20026;-78
2023/05/07 10:56:38;;;;;;;25.48;19.85;;;;;;;;;;5093358;28;20107;-79
2023/05/07 10:59:31;;;;;;;25.75;20.40;;;;;;;;;;5075086;28;20063;-79
2023/05/07 11:01:57;;;;;;;21.42;17.08;;;;;;;;;;5092432;28;20676;-78
2023/05/07 11:04:26;;;;;;;22.50;18.83;;;;;;;;;;5092950;28;20023;-78
2023/05/07 11:07:08;;;;;;;25.77;20.73;;;;;;;;;;5092334;28;20022;-78
2023/05/07 11:09:58;;;;;;;24.65;19.52;;;;;;;;;;5092910;28;20457;-77
2023/05/07 11:12:36;;;;;;;23.20;19.67;;;;;;;;;;5093109;28;20336;-78
2023/05/07 11:15:03;;;;;;;27.25;19.98;;;;;;;;;;5092700;28;20475;-78
2023/05/07 11:17:31;;;;;;;25.95;19.83;;;;;;;;;;5092979;28;20643;-78
2023/05/07 11:19:57;;;;;;;25.02;17.95;;;;;;;;;;5093613;28;20486;-78
2023/05/07 11:22:32;;;;;;;22.55;19.58;;;;;;;;;;5093097;28;20589;-78
2023/05/07 11:25:02;;;;;;;23.95;18.05;;;;;;;;;;5092783;28;20027;-78
2023/05/07 11:27:29;;;;;;;27.00;20.13;;;;;;;;;;5093229;28;20052;-78
2023/05/07 11:29:57;;;;;;;25.92;19.15;;;;;;;;;;5093260;28;20056;-78
2023/05/07 11:32:28;;;;;;;26.80;20.20;;;;;;;;;;5093119;28;20102;-78
2023/05/07 11:34:55;;;;;;;23.00;18.58;;;;;;;;;;5096484;28;20089;-77
2023/05/07 11:37:22;;;;;;;24.88;19.85;;;;;;;;;;5097210;28;20020;-78
2023/05/07 11:39:48;;;;;;;24.88;19.45;;;;;;;;;;5097081;28;20508;-78
2023/05/07 11:42:39;;;;;;;24.73;18.88;;;;;;;;;;5096767;28;20024;-78
2023/05/07 11:45:08;;;;;;;24.30;19.98;;;;;;;;;;5076342;28;20038;-78
2023/05/07 11:47:34;;;;;;;25.27;20.10;;;;;;;;;;5076871;28;20464;-78
2023/05/07 11:50:05;;;;;;;24.83;19.63;;;;;;;;;;5076908;28;20036;-78
2023/05/07 11:52:31;;;;;;;24.45;18.75;;;;;;;;;;5068885;28;20117;-78
2023/05/07 11:55:00;;;;;;;24.35;19.13;;;;;;;;;;5099226;28;20103;-78
2023/05/07 11:57:26;;;;;;;24.63;18.90;;;;;;;;;;5097073;28;20051;-78
2023/05/07 11:59:59;;;;;;;26.30;19.70;;;;;;;;;;5093785;28;20032;-79
2023/05/07 12:02:25;;;;;;;27.77;19.60;;;;;;;;;;5075739;28;20475;-79
2023/05/07 12:04:51;;;;;;;26.10;18.92;;;;;;;;;;5077579;28;20028;-78
2023/05/07 12:07:18;;;;;;;23.08;18.65;;;;;;;;;;5097013;28;20107;-78
2023/05/07 12:09:45;;;;;;;24.95;19.50;;;;;;;;;;5096246;28;20073;-78
2023/05/07 12:12:11;;;;;;;25.73;19.45;;;;;;;;;;5096275;28;20462;-78
2023/05/07 12:14:44;;;;;;;22.95;19.15;;;;;;;;;;5096559;28;20029;-78
2023/05/07 12:17:11;;;;;;;24.85;18.45;;;;;;;;;;5058690;28;20029;-78
2023/05/07 12:19:37;;;;;;;23.10;17.65;;;;;;;;;;5098157;28;20032;-79
2023/05/07 12:22:04;;;;;;;22.05;17.50;;;;;;;;;;5096155;28;20028;-78
2023/05/07 12:24:42;;;;;;;24.60;18.70;;;;;;;;;;5099598;28;20034;-79
2023/05/07 12:27:09;;;;;;;22.27;17.10;;;;;;;;;;5081630;28;20024;-79
2023/05/07 12:29:35;;;;;;;25.63;18.80;;;;;;;;;;5095974;28;20028;-79
2023/05/07 12:32:01;;;;;;;24.88;19.05;;;;;;;;;;5095949;28;20020;-79
2023/05/07 12:34:28;;;;;;;21.67;17.45;;;;;;;;;;5097567;28;20029;-79
2023/05/07 12:36:54;;;;;;;22.85;18.63;;;;;;;;;;5058061;28;20032;-79
2023/05/07 12:39:20;;;;;;;23.02;17.38;;;;;;;;;;5076637;28;20032;-79
2023/05/07 12:41:54;;;;;;;22.88;17.63;;;;;;;;;;5076081;28;20032;-79
2023/05/07 12:44:20;;;;;;;23.27;18.52;;;;;;;;;;5076852;28;20025;-79
2023/05/07 12:46:47;;;;;;;23.27;15.52;;;;;;;;;;5078865;28;20025;-79
2023/05/07 12:49:13;;;;;;;23.83;16.52;;;;;;;;;;5102408;28;20035;-79
2023/05/07 12:51:39;;;;;;;22.05;18.58;;;;;;;;;;5105300;28;20028;-79
2023/05/07 12:54:05;;;;;;;22.92;16.98;;;;;;;;;;5103015;28;20050;-79
2023/05/07 12:56:32;;;;;;;21.25;16.40;;;;;;;;;;5097986;28;20394;-79
2023/05/07 12:59:01;;;;;;;22.40;17.42;;;;;;;;;;5105515;28;20028;-79
2023/05/07 13:01:31;;;;;;;23.27;17.23;;;;;;;;;;5094312;28;20032;-79
2023/05/07 13:04:00;;;;;;;22.63;17.35;;;;;;;;;;5104908;28;20048;-79
2023/05/07 13:06:26;;;;;;;;;;;;;;;;;;5106023;28;20024;-79
2023/05/07 13:08:52;;;;;;;22.45;17.85;;;;;;;;;;5108778;28;19950;-79
2023/05/07 13:11:18;;;;;;;21.70;16.98;;;;;;;;;;5090180;28;20039;-80
2023/05/07 13:13:44;;;;;;;24.25;17.95;;;;;;;;;;5105433;28;20024;-80
2023/05/07 13:16:11;;;;;;;20.00;15.10;;;;;;;;;;5109569;28;20020;-79
2023/05/07 13:18:38;;;;;;;20.63;17.02;;;;;;;;;;5105380;28;20028;-79
2023/05/07 13:21:04;;;;;;;21.25;17.00;;;;;;;;;;5084544;28;20351;-78
2023/05/07 13:23:30;;;;;;;24.27;17.98;;;;;;;;;;5103344;28;20103;-79
2023/05/07 13:25:56;;;;;;;25.05;19.23;;;;;;;;;;5104705;28;20064;-79
2023/05/07 13:28:23;;;;;;;21.45;17.40;;;;;;;;;;5102040;28;20057;-79
2023/05/07 13:30:49;;;;;;;24.23;18.88;;;;;;;;;;5103044;28;20104;-80
2023/05/07 13:33:22;;;;;;;21.17;17.17;;;;;;;;;;5111992;28;20024;-80
2023/05/07 13:35:48;;;;;;;21.58;18.48;;;;;;;;;;5102450;28;20024;-79
2023/05/07 13:38:15;;;;;;;22.67;17.55;;;;;;;;;;5101774;28;20039;-79
2023/05/07 13:40:41;;;;;;;22.80;18.13;;;;;;;;;;5095406;28;20023;-80
2023/05/07 13:43:12;;;;;;;21.95;17.95;;;;;;;;;;5095715;28;20043;-79
2023/05/07 13:45:38;;;;;;;19.80;16.58;;;;;;;;;;5102802;28;20027;-79
2023/05/07 13:48:04;;;;;;;19.25;15.45;;;;;;;;;;5104204;28;20080;-79
2023/05/07 13:50:30;;;;;;;20.20;16.13;;;;;;;;;;5111121;28;20073;-80
2023/05/07 13:52:56;;;;;;;19.90;16.73;;;;;;;;;;5115217;28;20031;-79
2023/05/07 13:55:22;;;;;;;18.98;16.05;;;;;;;;;;5112218;28;20462;-80
2023/05/07 13:57:55;;;;;;;21.02;17.38;;;;;;;;;;5106588;28;20103;-80
2023/05/07 14:00:21;;;;;;;20.40;16.73;;;;;;;;;;5100549;28;20031;-80
2023/05/07 14:02:47;;;;;;;22.33;15.45;;;;;;;;;;5092308;28;20056;-80
2023/05/07 14:05:13;;;;;;;18.00;15.90;;;;;;;;;;5083846;28;20498;-80
2023/05/07 14:07:39;;;;;;;20.10;16.15;;;;;;;;;;5092372;28;20050;-80
2023/05/07 14:10:05;;;;;;;20.80;15.90;;;;;;;;;;5081827;28;20040;-80
2023/05/07 14:12:32;;;;;;;17.83;14.50;;;;;;;;;;5080511;28;20028;-80
2023/05/07 14:14:58;;;;;;;18.67;15.00;;;;;;;;;;5092577;28;20643;-79
2023/05/07 14:17:26;;;;;;;18.92;14.38;;;;;;;;;;5092624;28;20024;-80